sensor_id;sensor_type;location;lat;lon;timestamp;P1;durP1;ratioP1;P2;durP2;ratioP2
7047;SDS011;3565;53.254;10.352;2023-04-16T00:01:16;52.73;;;32.60;;
7047;SDS011;3565;53.254;10.352;2023-04-16T00:06:23;49.30;;;31.33;;
7047;SDS011;3565;53.254;10.352;2023-04-16T00:08:53;55.03;;;32.87;;
7047;SDS011;3565;53.254;10.352;2023-04-16T00:14:01;55.50;;;32.43;;
7047;SDS011;3565;53.254;10.352;2023-04-16T00:16:30;49.77;;;32.27;;
7047;SDS011;3565;53.254;10.352;2023-04-16T00:21:37;53.73;;;32.67;;
7047;SDS011;3565;53.254;10.352;2023-04-16T00:24:06;51.77;;;32.27;;
7047;SDS011;3565;53.254;10.352;2023-04-16T00:26:44;51.27;;;31.27;;
7047;SDS011;3565;53.254;10.352;2023-04-16T00:31:51;49.57;;;31.97;;
7047;SDS011;3565;53.254;10.352;2023-04-16T00:34:20;55.53;;;32.80;;
7047;SDS011;3565;53.254;10.352;2023-04-16T00:36:49;46.70;;;30.43;;
7047;SDS011;3565;53.254;10.352;2023-04-16T00:39:28;53.93;;;32.27;;
7047;SDS011;3565;53.254;10.352;2023-04-16T00:44:35;54.90;;;32.43;;
7047;SDS011;3565;53.254;10.352;2023-04-16T00:47:04;56.57;;;34.27;;
7047;SDS011;3565;53.254;10.352;2023-04-16T00:49:44;49.20;;;31.27;;
7047;SDS011;3565;53.254;10.352;2023-04-16T00:54:52;56.57;;;32.67;;
7047;SDS011;3565;53.254;10.352;2023-04-16T00:57:22;54.27;;;33.13;;
7047;SDS011;3565;53.254;10.352;2023-04-16T01:02:29;49.17;;;32.10;;
7047;SDS011;3565;53.254;10.352;2023-04-16T01:04:59;51.87;;;30.83;;
7047;SDS011;3565;53.254;10.352;2023-04-16T01:07:38;55.03;;;31.70;;
7047;SDS011;3565;53.254;10.352;2023-04-16T01:12:45;50.33;;;30.57;;
7047;SDS011;3565;53.254;10.352;2023-04-16T01:15:14;52.23;;;30.47;;
7047;SDS011;3565;53.254;10.352;2023-04-16T01:17:53;48.00;;;29.00;;
7047;SDS011;3565;53.254;10.352;2023-04-16T01:23:00;50.97;;;30.03;;
7047;SDS011;3565;53.254;10.352;2023-04-16T01:25:30;47.73;;;30.07;;
7047;SDS011;3565;53.254;10.352;2023-04-16T01:28:00;46.53;;;28.80;;
7047;SDS011;3565;53.254;10.352;2023-04-16T01:30:39;47.43;;;29.87;;
7047;SDS011;3565;53.254;10.352;2023-04-16T01:35:46;44.63;;;28.27;;
7047;SDS011;3565;53.254;10.352;2023-04-16T01:38:25;49.80;;;28.97;;
7047;SDS011;3565;53.254;10.352;2023-04-16T01:43:33;43.40;;;27.73;;
7047;SDS011;3565;53.254;10.352;2023-04-16T01:46:10;40.93;;;27.97;;
7047;SDS011;3565;53.254;10.352;2023-04-16T01:48:49;43.77;;;27.90;;
7047;SDS011;3565;53.254;10.352;2023-04-16T01:51:20;44.67;;;26.60;;
7047;SDS011;3565;53.254;10.352;2023-04-16T01:56:26;41.37;;;26.03;;
7047;SDS011;3565;53.254;10.352;2023-04-16T02:01:33;44.90;;;26.50;;
7047;SDS011;3565;53.254;10.352;2023-04-16T02:04:03;42.50;;;25.23;;
7047;SDS011;3565;53.254;10.352;2023-04-16T02:06:41;39.87;;;26.43;;
7047;SDS011;3565;53.254;10.352;2023-04-16T02:11:48;40.77;;;26.47;;
7047;SDS011;3565;53.254;10.352;2023-04-16T02:14:17;43.30;;;26.53;;
7047;SDS011;3565;53.254;10.352;2023-04-16T02:16:56;42.80;;;25.43;;
7047;SDS011;3565;53.254;10.352;2023-04-16T02:22:04;41.07;;;25.37;;
7047;SDS011;3565;53.254;10.352;2023-04-16T02:24:33;35.70;;;23.87;;
7047;SDS011;3565;53.254;10.352;2023-04-16T02:27:12;36.30;;;24.20;;
7047;SDS011;3565;53.254;10.352;2023-04-16T02:29:42;35.77;;;24.67;;
7047;SDS011;3565;53.254;10.352;2023-04-16T02:34:48;36.33;;;24.20;;
7047;SDS011;3565;53.254;10.352;2023-04-16T02:37:18;42.33;;;24.30;;
7047;SDS011;3565;53.254;10.352;2023-04-16T02:42:26;41.43;;;25.60;;
7047;SDS011;3565;53.254;10.352;2023-04-16T02:44:55;40.20;;;25.60;;
7047;SDS011;3565;53.254;10.352;2023-04-16T02:47:43;37.83;;;24.40;;
7047;SDS011;3565;53.254;10.352;2023-04-16T02:52:50;38.47;;;25.63;;
7047;SDS011;3565;53.254;10.352;2023-04-16T02:55:20;37.80;;;23.70;;
7047;SDS011;3565;53.254;10.352;2023-04-16T02:57:49;42.40;;;24.23;;
7047;SDS011;3565;53.254;10.352;2023-04-16T03:00:20;36.17;;;23.90;;
7047;SDS011;3565;53.254;10.352;2023-04-16T03:02:50;34.73;;;23.00;;
7047;SDS011;3565;53.254;10.352;2023-04-16T03:05:29;36.17;;;23.67;;
7047;SDS011;3565;53.254;10.352;2023-04-16T03:07:59;39.23;;;24.10;;
7047;SDS011;3565;53.254;10.352;2023-04-16T03:10:30;38.90;;;23.90;;
7047;SDS011;3565;53.254;10.352;2023-04-16T03:13:00;38.33;;;23.53;;
7047;SDS011;3565;53.254;10.352;2023-04-16T03:18:07;34.93;;;22.20;;
7047;SDS011;3565;53.254;10.352;2023-04-16T03:20:36;38.00;;;23.47;;
7047;SDS011;3565;53.254;10.352;2023-04-16T03:25:44;38.63;;;22.90;;
7047;SDS011;3565;53.254;10.352;2023-04-16T03:28:13;34.97;;;21.37;;
7047;SDS011;3565;53.254;10.352;2023-04-16T03:30:52;37.70;;;23.00;;
7047;SDS011;3565;53.254;10.352;2023-04-16T03:33:21;39.37;;;23.77;;
7047;SDS011;3565;53.254;10.352;2023-04-16T03:35:55;34.43;;;21.87;;
7047;SDS011;3565;53.254;10.352;2023-04-16T03:38:34;38.80;;;23.23;;
7047;SDS011;3565;53.254;10.352;2023-04-16T03:43:41;35.70;;;21.60;;
7047;SDS011;3565;53.254;10.352;2023-04-16T03:46:10;33.43;;;21.30;;
7047;SDS011;3565;53.254;10.352;2023-04-16T03:48:51;31.53;;;21.87;;
7047;SDS011;3565;53.254;10.352;2023-04-16T03:51:21;35.17;;;22.50;;
7047;SDS011;3565;53.254;10.352;2023-04-16T03:56:28;31.03;;;20.83;;
7047;SDS011;3565;53.254;10.352;2023-04-16T04:01:38;35.30;;;22.20;;
7047;SDS011;3565;53.254;10.352;2023-04-16T04:04:08;29.43;;;20.57;;
7047;SDS011;3565;53.254;10.352;2023-04-16T04:06:47;31.13;;;20.60;;
7047;SDS011;3565;53.254;10.352;2023-04-16T04:11:54;32.70;;;19.87;;
7047;SDS011;3565;53.254;10.352;2023-04-16T04:14:24;35.60;;;19.60;;
7047;SDS011;3565;53.254;10.352;2023-04-16T04:16:54;32.73;;;20.17;;
7047;SDS011;3565;53.254;10.352;2023-04-16T04:19:33;30.90;;;19.33;;
7047;SDS011;3565;53.254;10.352;2023-04-16T04:24:44;29.37;;;20.30;;
7047;SDS011;3565;53.254;10.352;2023-04-16T04:27:13;30.50;;;20.27;;
7047;SDS011;3565;53.254;10.352;2023-04-16T04:29:52;29.00;;;19.37;;
7047;SDS011;3565;53.254;10.352;2023-04-16T04:32:22;31.87;;;19.40;;
7047;SDS011;3565;53.254;10.352;2023-04-16T04:37:28;28.70;;;18.87;;
7047;SDS011;3565;53.254;10.352;2023-04-16T04:42:37;34.47;;;19.50;;
7047;SDS011;3565;53.254;10.352;2023-04-16T04:45:08;29.43;;;19.47;;
7047;SDS011;3565;53.254;10.352;2023-04-16T04:47:47;30.13;;;19.13;;
7047;SDS011;3565;53.254;10.352;2023-04-16T04:52:54;29.40;;;19.60;;
7047;SDS011;3565;53.254;10.352;2023-04-16T04:55:24;30.93;;;19.27;;
7047;SDS011;3565;53.254;10.352;2023-04-16T04:57:53;25.73;;;18.07;;
7047;SDS011;3565;53.254;10.352;2023-04-16T05:00:36;28.43;;;18.77;;
7047;SDS011;3565;53.254;10.352;2023-04-16T05:05:43;31.10;;;18.83;;
7047;SDS011;3565;53.254;10.352;2023-04-16T05:08:14;29.23;;;18.03;;
7047;SDS011;3565;53.254;10.352;2023-04-16T05:10:57;29.53;;;19.60;;
7047;SDS011;3565;53.254;10.352;2023-04-16T05:13:27;28.53;;;19.00;;
7047;SDS011;3565;53.254;10.352;2023-04-16T05:15:58;36.43;;;18.63;;
7047;SDS011;3565;53.254;10.352;2023-04-16T05:18:27;25.80;;;18.00;;
7047;SDS011;3565;53.254;10.352;2023-04-16T05:23:36;32.33;;;19.33;;
7047;SDS011;3565;53.254;10.352;2023-04-16T05:26:05;26.47;;;18.60;;
7047;SDS011;3565;53.254;10.352;2023-04-16T05:28:35;33.93;;;19.80;;
7047;SDS011;3565;53.254;10.352;2023-04-16T05:33:41;30.07;;;19.93;;
7047;SDS011;3565;53.254;10.352;2023-04-16T05:36:11;30.33;;;19.87;;
7047;SDS011;3565;53.254;10.352;2023-04-16T05:38:49;32.27;;;20.27;;
7047;SDS011;3565;53.254;10.352;2023-04-16T05:43:56;33.70;;;18.73;;
7047;SDS011;3565;53.254;10.352;2023-04-16T05:46:26;28.27;;;18.90;;
7047;SDS011;3565;53.254;10.352;2023-04-16T05:51:33;28.33;;;19.07;;
7047;SDS011;3565;53.254;10.352;2023-04-16T05:54:02;31.47;;;19.83;;
7047;SDS011;3565;53.254;10.352;2023-04-16T05:56:41;29.60;;;18.77;;
7047;SDS011;3565;53.254;10.352;2023-04-16T06:01:48;30.27;;;19.57;;
7047;SDS011;3565;53.254;10.352;2023-04-16T06:04:17;29.00;;;19.50;;
7047;SDS011;3565;53.254;10.352;2023-04-16T06:06:47;30.33;;;19.67;;
7047;SDS011;3565;53.254;10.352;2023-04-16T06:09:26;28.37;;;18.67;;
7047;SDS011;3565;53.254;10.352;2023-04-16T06:11:56;29.43;;;18.53;;
7047;SDS011;3565;53.254;10.352;2023-04-16T06:14:35;32.63;;;20.03;;
7047;SDS011;3565;53.254;10.352;2023-04-16T06:17:04;28.93;;;20.30;;
7047;SDS011;3565;53.254;10.352;2023-04-16T06:19:43;30.77;;;19.57;;
7047;SDS011;3565;53.254;10.352;2023-04-16T06:24:50;33.43;;;20.50;;
7047;SDS011;3565;53.254;10.352;2023-04-16T06:27:29;29.27;;;19.97;;
7047;SDS011;3565;53.254;10.352;2023-04-16T06:29:59;32.90;;;20.80;;
7047;SDS011;3565;53.254;10.352;2023-04-16T06:35:07;30.37;;;20.50;;
7047;SDS011;3565;53.254;10.352;2023-04-16T06:37:38;30.27;;;19.23;;
7047;SDS011;3565;53.254;10.352;2023-04-16T06:42:45;30.37;;;20.40;;
7047;SDS011;3565;53.254;10.352;2023-04-16T06:45:15;33.33;;;21.43;;
7047;SDS011;3565;53.254;10.352;2023-04-16T06:47:54;28.53;;;19.53;;
7047;SDS011;3565;53.254;10.352;2023-04-16T06:50:24;30.13;;;19.67;;
7047;SDS011;3565;53.254;10.352;2023-04-16T06:52:54;31.03;;;19.50;;
7047;SDS011;3565;53.254;10.352;2023-04-16T06:55:33;34.47;;;21.13;;
7047;SDS011;3565;53.254;10.352;2023-04-16T06:58:02;31.00;;;20.77;;
7047;SDS011;3565;53.254;10.352;2023-04-16T07:00:32;29.63;;;19.80;;
7047;SDS011;3565;53.254;10.352;2023-04-16T07:03:10;29.73;;;19.43;;
7047;SDS011;3565;53.254;10.352;2023-04-16T07:05:39;28.00;;;20.37;;
7047;SDS011;3565;53.254;10.352;2023-04-16T07:08:10;28.00;;;19.37;;
7047;SDS011;3565;53.254;10.352;2023-04-16T07:10:49;29.10;;;19.57;;
7047;SDS011;3565;53.254;10.352;2023-04-16T07:15:56;28.10;;;19.13;;
7047;SDS011;3565;53.254;10.352;2023-04-16T07:18:26;25.70;;;19.40;;
7047;SDS011;3565;53.254;10.352;2023-04-16T07:23:32;27.07;;;19.33;;
7047;SDS011;3565;53.254;10.352;2023-04-16T07:26:03;31.67;;;20.77;;
7047;SDS011;3565;53.254;10.352;2023-04-16T07:28:42;30.30;;;19.60;;
7047;SDS011;3565;53.254;10.352;2023-04-16T07:33:49;26.83;;;18.97;;
7047;SDS011;3565;53.254;10.352;2023-04-16T07:36:18;26.17;;;19.73;;
7047;SDS011;3565;53.254;10.352;2023-04-16T07:41:24;28.47;;;19.73;;
7047;SDS011;3565;53.254;10.352;2023-04-16T07:43:56;31.30;;;19.63;;
7047;SDS011;3565;53.254;10.352;2023-04-16T07:46:34;26.23;;;18.70;;
7047;SDS011;3565;53.254;10.352;2023-04-16T07:51:41;30.17;;;19.43;;
7047;SDS011;3565;53.254;10.352;2023-04-16T07:54:10;30.47;;;19.03;;
7047;SDS011;3565;53.254;10.352;2023-04-16T07:56:49;27.80;;;18.67;;
7047;SDS011;3565;53.254;10.352;2023-04-16T08:01:55;25.93;;;18.10;;
7047;SDS011;3565;53.254;10.352;2023-04-16T08:04:25;28.90;;;18.83;;
7047;SDS011;3565;53.254;10.352;2023-04-16T08:06:54;23.40;;;17.67;;
7047;SDS011;3565;53.254;10.352;2023-04-16T08:09:25;24.50;;;19.10;;
7047;SDS011;3565;53.254;10.352;2023-04-16T08:11:55;24.40;;;16.80;;
7047;SDS011;3565;53.254;10.352;2023-04-16T08:14:33;25.57;;;17.13;;
7047;SDS011;3565;53.254;10.352;2023-04-16T08:17:03;25.17;;;18.37;;
7047;SDS011;3565;53.254;10.352;2023-04-16T08:19:46;28.53;;;18.03;;
7047;SDS011;3565;53.254;10.352;2023-04-16T08:24:53;26.27;;;18.20;;
7047;SDS011;3565;53.254;10.352;2023-04-16T08:27:22;25.63;;;17.77;;
7047;SDS011;3565;53.254;10.352;2023-04-16T08:32:29;26.77;;;18.80;;
7047;SDS011;3565;53.254;10.352;2023-04-16T08:34:59;24.27;;;17.43;;
7047;SDS011;3565;53.254;10.352;2023-04-16T08:37:28;27.03;;;17.57;;
7047;SDS011;3565;53.254;10.352;2023-04-16T08:42:36;28.77;;;18.03;;
7047;SDS011;3565;53.254;10.352;2023-04-16T08:45:10;22.30;;;17.37;;
7047;SDS011;3565;53.254;10.352;2023-04-16T08:47:49;26.77;;;18.37;;
7047;SDS011;3565;53.254;10.352;2023-04-16T08:50:21;27.37;;;17.97;;
7047;SDS011;3565;53.254;10.352;2023-04-16T08:55:31;25.60;;;18.00;;
7047;SDS011;3565;53.254;10.352;2023-04-16T08:58:13;26.87;;;18.10;;
7047;SDS011;3565;53.254;10.352;2023-04-16T09:00:37;26.40;;;18.13;;
7047;SDS011;3565;53.254;10.352;2023-04-16T09:05:44;25.40;;;18.47;;
7047;SDS011;3565;53.254;10.352;2023-04-16T09:10:53;25.53;;;18.23;;
7047;SDS011;3565;53.254;10.352;2023-04-16T09:13:32;27.13;;;18.50;;
7047;SDS011;3565;53.254;10.352;2023-04-16T09:16:04;25.03;;;18.33;;
7047;SDS011;3565;53.254;10.352;2023-04-16T09:18:44;25.30;;;18.27;;
7047;SDS011;3565;53.254;10.352;2023-04-16T09:21:13;24.27;;;18.27;;
7047;SDS011;3565;53.254;10.352;2023-04-16T09:23:54;28.33;;;18.47;;
7047;SDS011;3565;53.254;10.352;2023-04-16T09:26:25;25.90;;;18.03;;
7047;SDS011;3565;53.254;10.352;2023-04-16T09:31:32;22.63;;;17.57;;
7047;SDS011;3565;53.254;10.352;2023-04-16T09:34:02;22.93;;;17.20;;
7047;SDS011;3565;53.254;10.352;2023-04-16T09:36:41;26.00;;;17.60;;
7047;SDS011;3565;53.254;10.352;2023-04-16T09:41:48;22.97;;;16.37;;
7047;SDS011;3565;53.254;10.352;2023-04-16T09:44:21;22.83;;;17.00;;
7047;SDS011;3565;53.254;10.352;2023-04-16T09:46:53;25.57;;;17.60;;
7047;SDS011;3565;53.254;10.352;2023-04-16T09:49:33;21.90;;;17.03;;
7047;SDS011;3565;53.254;10.352;2023-04-16T09:54:46;23.87;;;16.77;;
7047;SDS011;3565;53.254;10.352;2023-04-16T09:57:25;25.23;;;16.50;;
7047;SDS011;3565;53.254;10.352;2023-04-16T10:02:34;22.27;;;17.27;;
7047;SDS011;3565;53.254;10.352;2023-04-16T10:05:07;24.03;;;17.13;;
7047;SDS011;3565;53.254;10.352;2023-04-16T10:07:46;23.47;;;17.60;;
7047;SDS011;3565;53.254;10.352;2023-04-16T10:12:55;26.23;;;18.00;;
7047;SDS011;3565;53.254;10.352;2023-04-16T10:15:25;23.43;;;16.93;;
7047;SDS011;3565;53.254;10.352;2023-04-16T10:17:56;22.73;;;17.00;;
7047;SDS011;3565;53.254;10.352;2023-04-16T10:23:04;21.93;;;17.40;;
7047;SDS011;3565;53.254;10.352;2023-04-16T10:25:34;19.20;;;16.07;;
7047;SDS011;3565;53.254;10.352;2023-04-16T10:28:04;20.73;;;15.50;;
7047;SDS011;3565;53.254;10.352;2023-04-16T10:30:44;23.67;;;16.93;;
7047;SDS011;3565;53.254;10.352;2023-04-16T10:33:22;24.73;;;18.83;;
7047;SDS011;3565;53.254;10.352;2023-04-16T10:38:39;25.33;;;17.33;;
7047;SDS011;3565;53.254;10.352;2023-04-16T10:43:49;21.27;;;16.10;;
7047;SDS011;3565;53.254;10.352;2023-04-16T10:46:20;20.20;;;15.70;;
7047;SDS011;3565;53.254;10.352;2023-04-16T10:48:51;21.53;;;15.93;;
7047;SDS011;3565;53.254;10.352;2023-04-16T10:54:03;18.50;;;14.40;;
7047;SDS011;3565;53.254;10.352;2023-04-16T10:56:34;19.57;;;14.53;;
7047;SDS011;3565;53.254;10.352;2023-04-16T10:59:16;19.67;;;14.37;;
7047;SDS011;3565;53.254;10.352;2023-04-16T11:01:46;22.23;;;14.60;;
7047;SDS011;3565;53.254;10.352;2023-04-16T11:04:26;20.03;;;15.10;;
7047;SDS011;3565;53.254;10.352;2023-04-16T11:12:36;20.40;;;14.07;;
7047;SDS011;3565;53.254;10.352;2023-04-16T11:17:45;20.70;;;13.37;;
7047;SDS011;3565;53.254;10.352;2023-04-16T11:22:55;18.73;;;14.37;;
7047;SDS011;3565;53.254;10.352;2023-04-16T11:25:27;18.90;;;13.70;;
7047;SDS011;3565;53.254;10.352;2023-04-16T11:28:00;19.30;;;14.13;;
7047;SDS011;3565;53.254;10.352;2023-04-16T11:30:39;19.10;;;14.43;;
7047;SDS011;3565;53.254;10.352;2023-04-16T11:35:46;17.40;;;13.93;;
7047;SDS011;3565;53.254;10.352;2023-04-16T11:38:32;20.90;;;14.40;;
7047;SDS011;3565;53.254;10.352;2023-04-16T11:43:40;19.60;;;15.13;;
7047;SDS011;3565;53.254;10.352;2023-04-16T11:48:48;18.33;;;13.80;;
7047;SDS011;3565;53.254;10.352;2023-04-16T11:53:56;18.40;;;13.30;;
7047;SDS011;3565;53.254;10.352;2023-04-16T11:56:25;15.83;;;13.37;;
7047;SDS011;3565;53.254;10.352;2023-04-16T12:01:48;17.07;;;13.13;;
7047;SDS011;3565;53.254;10.352;2023-04-16T12:04:18;16.37;;;13.70;;
7047;SDS011;3565;53.254;10.352;2023-04-16T12:10:03;19.17;;;13.80;;
7047;SDS011;3565;53.254;10.352;2023-04-16T12:12:41;17.33;;;13.00;;
7047;SDS011;3565;53.254;10.352;2023-04-16T12:15:11;15.43;;;12.40;;
7047;SDS011;3565;53.254;10.352;2023-04-16T12:17:51;15.53;;;12.40;;
7047;SDS011;3565;53.254;10.352;2023-04-16T12:20:38;14.00;;;11.83;;
7047;SDS011;3565;53.254;10.352;2023-04-16T12:23:23;14.17;;;10.87;;
7047;SDS011;3565;53.254;10.352;2023-04-16T12:25:53;16.87;;;12.10;;
7047;SDS011;3565;53.254;10.352;2023-04-16T12:28:32;12.60;;;11.30;;
7047;SDS011;3565;53.254;10.352;2023-04-16T12:33:41;13.07;;;11.33;;
7047;SDS011;3565;53.254;10.352;2023-04-16T12:36:19;13.70;;;10.90;;
7047;SDS011;3565;53.254;10.352;2023-04-16T12:38:50;14.03;;;11.83;;
7047;SDS011;3565;53.254;10.352;2023-04-16T12:41:19;12.10;;;10.80;;
7047;SDS011;3565;53.254;10.352;2023-04-16T12:46:26;15.23;;;12.33;;
7047;SDS011;3565;53.254;10.352;2023-04-16T12:51:34;16.13;;;12.00;;
7047;SDS011;3565;53.254;10.352;2023-04-16T12:54:06;15.70;;;12.73;;
7047;SDS011;3565;53.254;10.352;2023-04-16T12:56:44;16.23;;;13.60;;
7047;SDS011;3565;53.254;10.352;2023-04-16T13:01:52;20.43;;;14.60;;
7047;SDS011;3565;53.254;10.352;2023-04-16T13:04:21;19.43;;;14.50;;
7047;SDS011;3565;53.254;10.352;2023-04-16T13:06:51;20.37;;;14.43;;
7047;SDS011;3565;53.254;10.352;2023-04-16T13:09:21;22.33;;;14.97;;
7047;SDS011;3565;53.254;10.352;2023-04-16T13:14:27;20.27;;;14.63;;
7047;SDS011;3565;53.254;10.352;2023-04-16T13:16:57;20.07;;;14.20;;
7047;SDS011;3565;53.254;10.352;2023-04-16T13:19:36;20.07;;;14.47;;
7047;SDS011;3565;53.254;10.352;2023-04-16T13:24:43;18.13;;;13.40;;
7047;SDS011;3565;53.254;10.352;2023-04-16T13:27:12;19.07;;;14.57;;
7047;SDS011;3565;53.254;10.352;2023-04-16T13:29:51;18.97;;;14.23;;
7047;SDS011;3565;53.254;10.352;2023-04-16T13:32:20;18.17;;;13.83;;
7047;SDS011;3565;53.254;10.352;2023-04-16T13:37:28;17.03;;;13.50;;
7047;SDS011;3565;53.254;10.352;2023-04-16T13:42:36;16.87;;;13.17;;
7047;SDS011;3565;53.254;10.352;2023-04-16T13:45:06;20.03;;;14.27;;
7047;SDS011;3565;53.254;10.352;2023-04-16T13:47:45;16.93;;;13.30;;
7047;SDS011;3565;53.254;10.352;2023-04-16T13:52:55;16.70;;;13.50;;
7047;SDS011;3565;53.254;10.352;2023-04-16T13:55:24;15.20;;;12.67;;
7047;SDS011;3565;53.254;10.352;2023-04-16T13:57:54;17.23;;;13.20;;
7047;SDS011;3565;53.254;10.352;2023-04-16T14:00:33;15.60;;;12.63;;
7047;SDS011;3565;53.254;10.352;2023-04-16T14:05:40;15.63;;;12.10;;
7047;SDS011;3565;53.254;10.352;2023-04-16T14:08:09;15.43;;;12.90;;
7047;SDS011;3565;53.254;10.352;2023-04-16T14:10:49;18.00;;;12.17;;
7047;SDS011;3565;53.254;10.352;2023-04-16T14:15:55;17.17;;;12.47;;
7047;SDS011;3565;53.254;10.352;2023-04-16T14:18:26;16.80;;;11.90;;
7047;SDS011;3565;53.254;10.352;2023-04-16T14:23:33;15.30;;;12.23;;
7047;SDS011;3565;53.254;10.352;2023-04-16T14:26:03;16.20;;;12.20;;
7047;SDS011;3565;53.254;10.352;2023-04-16T14:28:42;16.30;;;12.53;;
7047;SDS011;3565;53.254;10.352;2023-04-16T14:33:48;18.40;;;13.20;;
7047;SDS011;3565;53.254;10.352;2023-04-16T14:36:19;18.70;;;12.77;;
7047;SDS011;3565;53.254;10.352;2023-04-16T14:41:25;17.67;;;13.60;;
7047;SDS011;3565;53.254;10.352;2023-04-16T14:43:55;18.10;;;12.47;;
7047;SDS011;3565;53.254;10.352;2023-04-16T14:46:33;18.17;;;13.50;;
7047;SDS011;3565;53.254;10.352;2023-04-16T14:51:43;17.03;;;12.90;;
7047;SDS011;3565;53.254;10.352;2023-04-16T14:56:50;17.53;;;12.33;;
7047;SDS011;3565;53.254;10.352;2023-04-16T14:59:20;15.27;;;12.87;;
7047;SDS011;3565;53.254;10.352;2023-04-16T15:04:26;18.53;;;12.73;;
7047;SDS011;3565;53.254;10.352;2023-04-16T15:06:57;16.83;;;12.83;;
7047;SDS011;3565;53.254;10.352;2023-04-16T15:09:35;16.97;;;12.90;;
7047;SDS011;3565;53.254;10.352;2023-04-16T15:14:43;16.73;;;12.33;;
7047;SDS011;3565;53.254;10.352;2023-04-16T15:17:12;17.10;;;12.50;;
7047;SDS011;3565;53.254;10.352;2023-04-16T15:19:53;17.00;;;12.87;;
7047;SDS011;3565;53.254;10.352;2023-04-16T15:22:23;16.17;;;12.70;;
7047;SDS011;3565;53.254;10.352;2023-04-16T15:24:53;15.23;;;11.43;;
7047;SDS011;3565;53.254;10.352;2023-04-16T15:27:23;15.07;;;11.97;;
7047;SDS011;3565;53.254;10.352;2023-04-16T15:29:53;19.63;;;13.60;;
7047;SDS011;3565;53.254;10.352;2023-04-16T15:32:32;15.23;;;11.93;;
7047;SDS011;3565;53.254;10.352;2023-04-16T15:35:02;17.67;;;12.70;;
7047;SDS011;3565;53.254;10.352;2023-04-16T15:37:41;15.47;;;11.77;;
7047;SDS011;3565;53.254;10.352;2023-04-16T15:42:49;15.53;;;12.47;;
7047;SDS011;3565;53.254;10.352;2023-04-16T15:45:21;16.90;;;12.10;;
7047;SDS011;3565;53.254;10.352;2023-04-16T15:47:51;16.43;;;12.97;;
7047;SDS011;3565;53.254;10.352;2023-04-16T15:50:29;17.27;;;13.37;;
7047;SDS011;3565;53.254;10.352;2023-04-16T15:52:59;20.13;;;13.53;;
7047;SDS011;3565;53.254;10.352;2023-04-16T15:55:38;19.37;;;15.00;;
7047;SDS011;3565;53.254;10.352;2023-04-16T15:58:09;14.80;;;12.47;;
7047;SDS011;3565;53.254;10.352;2023-04-16T16:00:47;17.07;;;12.20;;
7047;SDS011;3565;53.254;10.352;2023-04-16T16:03:17;18.80;;;12.83;;
7047;SDS011;3565;53.254;10.352;2023-04-16T16:05:48;18.03;;;14.37;;
7047;SDS011;3565;53.254;10.352;2023-04-16T16:10:54;17.37;;;12.50;;
7047;SDS011;3565;53.254;10.352;2023-04-16T16:16:02;16.77;;;12.80;;
7047;SDS011;3565;53.254;10.352;2023-04-16T16:18:32;17.00;;;12.73;;
7047;SDS011;3565;53.254;10.352;2023-04-16T16:21:02;17.70;;;13.00;;
7047;SDS011;3565;53.254;10.352;2023-04-16T16:23:44;18.93;;;12.43;;
7047;SDS011;3565;53.254;10.352;2023-04-16T16:26:13;17.60;;;12.40;;
7047;SDS011;3565;53.254;10.352;2023-04-16T16:31:21;19.10;;;13.73;;
7047;SDS011;3565;53.254;10.352;2023-04-16T16:33:50;20.77;;;13.33;;
7047;SDS011;3565;53.254;10.352;2023-04-16T16:36:20;19.43;;;15.00;;
7047;SDS011;3565;53.254;10.352;2023-04-16T16:41:27;22.07;;;13.53;;
7047;SDS011;3565;53.254;10.352;2023-04-16T16:43:57;16.60;;;13.03;;
7047;SDS011;3565;53.254;10.352;2023-04-16T16:46:26;17.93;;;13.77;;
7047;SDS011;3565;53.254;10.352;2023-04-16T16:51:37;18.43;;;13.57;;
7047;SDS011;3565;53.254;10.352;2023-04-16T16:54:07;17.67;;;13.70;;
7047;SDS011;3565;53.254;10.352;2023-04-16T16:56:36;20.53;;;14.60;;
7047;SDS011;3565;53.254;10.352;2023-04-16T17:01:43;18.20;;;14.03;;
7047;SDS011;3565;53.254;10.352;2023-04-16T17:04:12;21.50;;;15.00;;
7047;SDS011;3565;53.254;10.352;2023-04-16T17:06:51;21.43;;;14.40;;
7047;SDS011;3565;53.254;10.352;2023-04-16T17:09:20;18.43;;;14.00;;
7047;SDS011;3565;53.254;10.352;2023-04-16T17:14:30;19.67;;;14.60;;
7047;SDS011;3565;53.254;10.352;2023-04-16T17:17:00;22.57;;;14.40;;
7047;SDS011;3565;53.254;10.352;2023-04-16T17:19:30;21.87;;;15.30;;
7047;SDS011;3565;53.254;10.352;2023-04-16T17:24:36;21.43;;;14.50;;
7047;SDS011;3565;53.254;10.352;2023-04-16T17:27:06;19.07;;;15.43;;
7047;SDS011;3565;53.254;10.352;2023-04-16T17:32:15;21.43;;;15.17;;
7047;SDS011;3565;53.254;10.352;2023-04-16T17:34:54;18.73;;;14.57;;
7047;SDS011;3565;53.254;10.352;2023-04-16T17:37:23;18.37;;;14.93;;
7047;SDS011;3565;53.254;10.352;2023-04-16T17:42:31;22.50;;;15.43;;
7047;SDS011;3565;53.254;10.352;2023-04-16T17:45:01;20.93;;;15.73;;
7047;SDS011;3565;53.254;10.352;2023-04-16T17:47:32;18.77;;;15.23;;
7047;SDS011;3565;53.254;10.352;2023-04-16T17:50:02;19.70;;;15.60;;
7047;SDS011;3565;53.254;10.352;2023-04-16T17:52:44;20.63;;;15.77;;
7047;SDS011;3565;53.254;10.352;2023-04-16T17:55:15;24.53;;;17.03;;
7047;SDS011;3565;53.254;10.352;2023-04-16T18:00:24;20.13;;;15.73;;
7047;SDS011;3565;53.254;10.352;2023-04-16T18:02:53;22.57;;;15.87;;
7047;SDS011;3565;53.254;10.352;2023-04-16T18:05:32;20.70;;;15.43;;
7047;SDS011;3565;53.254;10.352;2023-04-16T18:08:01;21.67;;;15.80;;
7047;SDS011;3565;53.254;10.352;2023-04-16T18:10:31;20.27;;;14.97;;
7047;SDS011;3565;53.254;10.352;2023-04-16T18:13:10;19.97;;;15.50;;
7047;SDS011;3565;53.254;10.352;2023-04-16T18:15:39;21.30;;;15.43;;
7047;SDS011;3565;53.254;10.352;2023-04-16T18:18:09;20.33;;;14.80;;
7047;SDS011;3565;53.254;10.352;2023-04-16T18:20:47;20.23;;;15.37;;
7047;SDS011;3565;53.254;10.352;2023-04-16T18:23:18;21.03;;;14.87;;
7047;SDS011;3565;53.254;10.352;2023-04-16T18:25:48;20.73;;;15.70;;
7047;SDS011;3565;53.254;10.352;2023-04-16T18:28:27;21.67;;;15.50;;
7047;SDS011;3565;53.254;10.352;2023-04-16T18:30:57;20.17;;;15.30;;
7047;SDS011;3565;53.254;10.352;2023-04-16T18:33:28;20.97;;;15.87;;
7047;SDS011;3565;53.254;10.352;2023-04-16T18:36:07;20.80;;;15.63;;
7047;SDS011;3565;53.254;10.352;2023-04-16T18:38:37;20.17;;;15.73;;
7047;SDS011;3565;53.254;10.352;2023-04-16T18:41:16;23.77;;;15.83;;
7047;SDS011;3565;53.254;10.352;2023-04-16T18:43:46;23.23;;;15.83;;
7047;SDS011;3565;53.254;10.352;2023-04-16T18:46:16;21.17;;;16.40;;
7047;SDS011;3565;53.254;10.352;2023-04-16T18:51:23;23.70;;;16.63;;
7047;SDS011;3565;53.254;10.352;2023-04-16T18:53:52;23.57;;;17.53;;
7047;SDS011;3565;53.254;10.352;2023-04-16T18:56:31;22.47;;;17.17;;
7047;SDS011;3565;53.254;10.352;2023-04-16T18:59:00;24.10;;;17.07;;
7047;SDS011;3565;53.254;10.352;2023-04-16T19:01:30;23.17;;;17.43;;
7047;SDS011;3565;53.254;10.352;2023-04-16T19:03:59;24.03;;;16.87;;
7047;SDS011;3565;53.254;10.352;2023-04-16T19:06:28;23.60;;;16.33;;
7047;SDS011;3565;53.254;10.352;2023-04-16T19:08:58;21.93;;;17.30;;
7047;SDS011;3565;53.254;10.352;2023-04-16T19:11:28;23.60;;;17.53;;
7047;SDS011;3565;53.254;10.352;2023-04-16T19:13:57;23.97;;;17.50;;
7047;SDS011;3565;53.254;10.352;2023-04-16T19:16:28;25.00;;;17.80;;
7047;SDS011;3565;53.254;10.352;2023-04-16T19:18:57;23.57;;;17.53;;
7047;SDS011;3565;53.254;10.352;2023-04-16T19:24:04;24.70;;;18.53;;
7047;SDS011;3565;53.254;10.352;2023-04-16T19:26:34;21.40;;;16.73;;